Time;durP1;ratioP1;P1;durP2;ratioP2;P2;SDS_P1;SDS_P2;PMS_P1;PMS_P2;Temp;Humidity;BMP_temperature;BMP_pressure;BME280_temperature;BME280_humidity;BME280_pressure;Samples;Min_cycle;Max_cycle;Signal;HPM_P1;HPM_P2
2022/11/01 00:04:59;;;;;;;0.60;0.10;;;15.10;1.00;;;;;;5776642;23;20511;-72
2022/11/01 00:07:27;;;;;;;0.60;0.10;;;15.10;1.00;;;;;;4917011;29;20468;-74
2022/11/01 00:09:55;;;;;;;0.60;0.10;;;15.00;1.00;;;;;;4918084;29;20449;-76
2022/11/01 00:12:22;;;;;;;0.60;0.10;;;15.00;1.00;;;;;;4911765;29;20476;-76
2022/11/01 00:14:50;;;;;;;0.60;0.10;;;15.00;1.00;;;;;;4917615;29;20500;-74
2022/11/01 00:19:54;;;;;;;0.60;0.10;;;;;;;;;;4916769;29;20880;-74
2022/11/01 00:22:23;;;;;;;0.60;0.10;;;;;;;;;;4919077;29;20472;-74
2022/11/01 00:24:51;;;;;;;0.60;0.10;;;15.00;1.00;;;;;;4919025;29;20440;-73
2022/11/01 00:27:22;;;;;;;0.60;0.10;;;;;;;;;;4915650;29;20888;-73
2022/11/01 00:29:50;;;;;;;0.60;0.10;;;;;;;;;;4917094;29;20480;-75
2022/11/01 00:32:18;;;;;;;0.60;0.10;;;;;;;;;;4916144;29;20460;-74
2022/11/01 00:34:47;;;;;;;0.60;0.10;;;;;;;;;;4916381;29;20817;-73
2022/11/01 00:37:15;;;;;;;0.60;0.10;;;;;;;;;;4916679;29;20489;-72
2022/11/01 00:39:44;;;;;;;0.60;0.10;;;14.90;1.00;;;;;;4916782;29;20527;-74
2022/11/01 00:42:12;;;;;;;0.60;0.10;;;;;;;;;;4916354;29;20512;-75
2022/11/01 00:44:40;;;;;;;0.60;0.10;;;15.00;1.00;;;;;;4916572;29;20512;-74
2022/11/01 00:47:08;;;;;;;0.60;0.10;;;15.00;1.00;;;;;;4917373;29;20861;-75
2022/11/01 00:49:36;;;;;;;0.60;0.10;;;;;;;;;;4917294;29;20889;-71
2022/11/01 00:52:05;;;;;;;0.60;0.10;;;;;;;;;;4916831;29;20532;-72
2022/11/01 00:54:33;;;;;;;0.60;0.10;;;15.00;1.00;;;;;;4917995;29;20536;-74
2022/11/01 00:57:02;;;;;;;0.60;0.10;;;;;;;;;;4916744;29;20890;-73
2022/11/01 00:59:31;;;;;;;0.60;0.10;;;;;;;;;;4916213;29;20472;-73
2022/11/01 01:01:59;;;;;;;0.60;0.10;;;;;;;;;;4916172;29;20461;-73
2022/11/01 01:04:27;;;;;;;0.60;0.10;;;15.00;1.00;;;;;;4916032;29;20444;-76
2022/11/01 01:06:55;;;;;;;0.60;0.10;;;;;;;;;;4920163;29;20493;-74
2022/11/01 01:09:23;;;;;;;0.60;0.10;;;15.10;1.00;;;;;;4920049;29;20618;-73
2022/11/01 01:11:52;;;;;;;0.60;0.10;;;;;;;;;;4919909;29;20456;-74
2022/11/01 01:14:22;;;;;;;0.60;0.10;;;;;;;;;;4919394;29;21007;-73
2022/11/01 01:16:50;;;;;;;0.60;0.10;;;;;;;;;;4919383;29;20865;-74
2022/11/01 01:19:18;;;;;;;0.60;0.10;;;;;;;;;;4919506;29;20491;-73
2022/11/01 01:21:46;;;;;;;0.60;0.10;;;;;;;;;;4919425;29;20820;-73
2022/11/01 01:24:15;;;;;;;0.60;0.10;;;;;;;;;;4920526;29;20445;-72
2022/11/01 01:26:43;;;;;;;0.60;0.10;;;15.00;1.00;;;;;;4919875;29;20452;-72
2022/11/01 01:29:11;;;;;;;0.60;0.10;;;;;;;;;;4919682;29;20494;-73
2022/11/01 01:31:40;;;;;;;1.57;1.47;;;;;;;;;;4919790;29;20460;-75
2022/11/01 01:34:09;;;;;;;0.60;0.10;;;15.00;1.00;;;;;;4919810;29;20563;-73
2022/11/01 01:36:37;;;;;;;0.60;0.10;;;15.00;1.00;;;;;;4919544;29;20489;-73
2022/11/01 01:39:05;;;;;;;0.60;0.10;;;;;;;;;;4919002;29;20589;-73
2022/11/01 01:45:11;;;;;;;0.60;0.10;;;15.00;1.00;;;;;;4922346;29;20429;-74
2022/11/01 01:47:41;;;;;;;0.60;0.10;;;;;;;;;;4920757;29;20469;-74
2022/11/01 01:50:13;;;;;;;0.60;0.10;;;15.00;1.00;;;;;;4920624;29;20800;-73
2022/11/01 01:52:47;;;;;;;0.60;0.10;;;15.00;1.00;;;;;;4919717;29;20443;-73
2022/11/01 01:55:18;;;;;;;0.60;0.10;;;15.00;1.00;;;;;;4919077;29;21068;-74
2022/11/01 01:57:47;;;;;;;0.60;0.10;;;;;;;;;;4918743;29;20481;-72
2022/11/01 02:00:15;;;;;;;0.60;0.10;;;;;;;;;;4919525;29;20448;-75
2022/11/01 02:02:45;;;;;;;0.60;0.10;;;;;;;;;;4919122;29;20476;-73
2022/11/01 02:05:19;;;;;;;0.60;0.10;;;14.90;1.00;;;;;;4920149;29;20444;-76
2022/11/01 02:07:47;;;;;;;0.60;0.10;;;;;;;;;;4918765;29;20481;-72
2022/11/01 02:10:16;;;;;;;0.60;0.10;;;;;;;;;;4918935;29;20508;-76
2022/11/01 02:12:46;;;;;;;0.60;0.10;;;14.90;1.00;;;;;;4918508;29;20983;-74
2022/11/01 02:15:15;;;;;;;1.37;1.27;;;14.90;1.00;;;;;;4918790;29;20477;-73
2022/11/01 02:17:53;;;;;;;0.60;0.10;;;14.90;1.00;;;;;;4917445;29;20559;-76
2022/11/01 02:21:14;;;;;;;0.60;0.10;;;14.90;1.00;;;;;;4919368;29;20448;-74
2022/11/01 02:24:14;;;;;;;0.60;0.10;;;14.90;1.00;;;;;;4867113;29;20527;-72
2022/11/01 02:27:16;;;;;;;0.60;0.10;;;14.90;1.00;;;;;;4928464;29;20449;-72
2022/11/01 02:30:23;;;;;;;0.60;0.10;;;14.90;1.00;;;;;;4919273;29;20957;-72
2022/11/01 02:33:00;;;;;;;0.60;0.10;;;;;;;;;;4925706;29;20452;-71
2022/11/01 02:35:40;;;;;;;0.60;0.20;;;15.00;1.00;;;;;;4920792;29;20527;-72
2022/11/01 02:38:09;;;;;;;0.60;0.10;;;;;;;;;;4920181;29;21004;-75
2022/11/01 02:40:45;;;;;;;0.60;0.10;;;14.90;1.00;;;;;;4919752;29;20449;-72
2022/11/01 02:43:18;;;;;;;0.60;0.10;;;14.90;1.00;;;;;;4919342;29;20481;-71
2022/11/01 02:45:49;;;;;;;0.60;0.10;;;14.90;1.00;;;;;;4918670;29;20540;-72
2022/11/01 02:48:21;;;;;;;0.60;0.10;;;;;;;;;;4919056;29;20488;-73
2022/11/01 02:50:54;;;;;;;0.60;0.10;;;14.90;1.00;;;;;;4919202;29;20452;-74
2022/11/01 02:53:22;;;;;;;0.60;0.10;;;14.90;1.00;;;;;;4918676;29;20528;-74
2022/11/01 02:55:52;;;;;;;0.60;0.10;;;;;;;;;;4918615;29;20487;-73
2022/11/01 02:58:22;;;;;;;0.60;0.10;;;15.00;1.00;;;;;;4918838;29;20477;-74
2022/11/01 03:00:51;;;;;;;0.60;0.10;;;15.00;1.00;;;;;;4918789;29;20446;-72
2022/11/01 03:03:24;;;;;;;0.60;0.10;;;15.00;1.00;;;;;;4917909;29;20449;-72
2022/11/01 03:06:04;;;;;;;0.60;0.10;;;15.00;1.00;;;;;;4918503;29;20426;-72
2022/11/01 03:08:35;;;;;;;0.60;0.13;;;15.00;1.00;;;;;;4918640;29;20473;-73
2022/11/01 03:11:07;;;;;;;0.60;0.10;;;15.00;1.00;;;;;;4918705;29;20474;-76
2022/11/01 03:13:50;;;;;;;0.60;0.10;;;15.00;1.00;;;;;;4917791;29;20480;-75
2022/11/01 03:16:27;;;;;;;0.60;0.10;;;15.00;1.00;;;;;;4918187;29;20484;-72
2022/11/01 03:19:06;;;;;;;0.60;0.10;;;15.00;1.00;;;;;;4917060;29;20554;-76
2022/11/01 03:21:39;;;;;;;0.60;0.10;;;15.00;1.00;;;;;;4917682;29;20433;-74
2022/11/01 03:24:20;;;;;;;1.33;1.23;;;14.90;1.00;;;;;;4917724;29;20449;-77
2022/11/01 03:26:52;;;;;;;3.03;1.97;;;;;;;;;;4917694;29;20516;-74
2022/11/01 03:29:23;;;;;;;0.70;0.40;;;14.90;1.00;;;;;;4917523;29;20520;-74
2022/11/01 03:31:53;;;;;;;2.60;1.20;;;14.80;1.00;;;;;;4918678;29;20452;-73
2022/11/01 03:34:23;;;;;;;2.10;1.43;;;14.80;1.00;;;;;;4918588;29;20942;-74
2022/11/01 03:36:53;;;;;;;0.70;0.30;;;;;;;;;;4919678;29;20520;-73
2022/11/01 03:39:26;;;;;;;1.00;0.60;;;14.80;1.00;;;;;;4919577;29;20471;-73
2022/11/01 03:42:00;;;;;;;1.03;0.93;;;15.00;1.00;;;;;;4917129;29;20460;-73
2022/11/01 03:44:33;;;;;;;0.60;0.30;;;14.90;1.00;;;;;;4918338;29;20428;-73
2022/11/01 03:47:01;;;;;;;2.03;0.80;;;15.00;1.00;;;;;;4918383;29;21028;-72
2022/11/01 03:49:31;;;;;;;0.60;0.20;;;15.10;1.00;;;;;;4918108;29;20892;-72
2022/11/01 03:51:59;;;;;;;3.33;3.03;;;;;;;;;;4917910;29;20832;-73
2022/11/01 03:54:28;;;;;;;0.97;0.73;;;;;;;;;;4918196;29;20456;-73
2022/11/01 03:56:56;;;;;;;1.47;1.37;;;;;;;;;;4917776;29;20806;-72
2022/11/01 03:59:24;;;;;;;0.60;0.10;;;;;;;;;;4918595;29;20469;-73
2022/11/01 04:01:53;;;;;;;1.13;0.97;;;;;;;;;;4918095;29;20456;-75
2022/11/01 04:04:21;;;;;;;0.60;0.20;;;14.90;9.40;;;;;;4918210;29;20456;-75
2022/11/01 04:06:51;;;;;;;3.33;3.17;;;;;;;;;;4917879;29;20449;-73
2022/11/01 04:09:18;;;;;;;0.60;0.20;;;14.90;14.90;;;;;;4916870;29;20473;-73
2022/11/01 04:11:46;;;;;;;2.70;2.47;;;14.80;15.90;;;;;;4916467;29;20884;-73
2022/11/01 04:22:39;;;;;;;2.73;1.53;;;14.70;69.40;;;;;;4916607;29;20448;-73
2022/11/01 04:25:08;;;;;;;0.67;0.40;;;;;;;;;;4916261;29;20562;-75
2022/11/01 04:27:35;;;;;;;1.27;0.73;;;14.70;96.10;;;;;;4915563;29;20487;-73
2022/11/01 04:30:04;;;;;;;0.60;0.10;;;;;;;;;;4915246;29;20514;-76
2022/11/01 04:32:32;;;;;;;0.60;0.10;;;14.60;96.10;;;;;;4916657;29;20448;-73
2022/11/01 04:35:00;;;;;;;0.80;0.57;;;;;;;;;;4917290;29;20449;-75
2022/11/01 04:37:28;;;;;;;0.70;0.30;;;14.70;96.20;;;;;;4918295;29;20484;-75
2022/11/01 04:39:57;;;;;;;3.33;2.17;;;;;;;;;;4917508;29;20456;-77
2022/11/01 04:42:25;;;;;;;0.60;0.10;;;;;;;;;;4921157;29;20457;-73
2022/11/01 04:44:54;;;;;;;0.60;0.30;;;;;;;;;;4922638;29;20467;-73
2022/11/01 04:47:22;;;;;;;0.60;0.10;;;;;;;;;;4922313;29;20467;-72
2022/11/01 04:49:50;;;;;;;0.53;0.10;;;;;;;;;;4922687;29;20512;-75
2022/11/01 04:52:18;;;;;;;0.60;0.20;;;;;;;;;;4922046;29;20548;-75
2022/11/01 04:54:46;;;;;;;0.60;0.27;;;;;;;;;;4921296;29;20476;-76
2022/11/01 04:57:23;;;;;;;0.60;0.20;;;;;;;;;;4920162;29;20480;-75
2022/11/01 04:59:51;;;;;;;1.23;0.53;;;;;;;;;;4921594;29;20444;-75
2022/11/01 05:02:19;;;;;;;1.90;1.27;;;14.80;99.90;;;;;;4919853;29;20476;-73
2022/11/01 05:04:47;;;;;;;1.47;1.37;;;;;;;;;;4921016;29;20453;-73
2022/11/01 05:07:16;;;;;;;0.60;0.20;;;;;;;;;;4920400;29;20824;-73
2022/11/01 05:09:44;;;;;;;0.90;0.30;;;14.80;99.90;;;;;;4919924;29;20476;-73
2022/11/01 05:12:12;;;;;;;0.73;0.53;;;;;;;;;;4919965;29;20453;-72
2022/11/01 05:14:42;;;;;;;1.73;1.50;;;;;;;;;;4920182;29;20452;-72
2022/11/01 05:17:10;;;;;;;0.60;0.10;;;;;;;;;;4920025;29;20488;-73
2022/11/01 05:19:38;;;;;;;1.90;0.97;;;;;;;;;;4920373;29;20532;-72
2022/11/01 05:22:06;;;;;;;1.80;1.23;;;14.90;99.90;;;;;;4920639;29;20464;-73
2022/11/01 05:24:34;;;;;;;0.60;0.10;;;;;;;;;;4921153;29;20453;-73
2022/11/01 05:27:02;;;;;;;0.60;0.20;;;15.00;99.90;;;;;;4920102;29;20457;-72
2022/11/01 05:29:31;;;;;;;0.60;0.20;;;;;;;;;;4919323;29;20465;-72
2022/11/01 05:32:01;;;;;;;1.00;0.90;;;15.00;99.90;;;;;;4918915;29;20474;-73
2022/11/01 05:34:30;;;;;;;2.83;1.03;;;;;;;;;;4919112;29;20818;-75
2022/11/01 05:36:58;;;;;;;0.60;0.10;;;;;;;;;;4919400;29;20484;-74
2022/11/01 05:39:26;;;;;;;0.73;0.73;;;15.00;99.90;;;;;;4918984;29;21004;-73
2022/11/01 05:41:53;;;;;;;0.60;0.10;;;15.00;99.90;;;;;;4919095;29;21008;-77
2022/11/01 05:44:28;;;;;;;0.60;0.37;;;15.00;99.90;;;;;;4919399;29;20504;-73
2022/11/01 05:46:56;;;;;;;1.00;0.97;;;;;;;;;;4920144;29;20500;-73
2022/11/01 05:49:25;;;;;;;3.33;1.90;;;15.00;99.90;;;;;;4919291;29;20838;-73
2022/11/01 05:51:53;;;;;;;0.60;0.20;;;;;;;;;;4919364;29;20471;-73
2022/11/01 05:54:21;;;;;;;0.77;0.77;;;15.00;99.90;;;;;;4919086;29;20452;-73
2022/11/01 05:56:49;;;;;;;0.60;0.10;;;;;;;;;;4919170;29;20489;-74
2022/11/01 05:59:17;;;;;;;0.60;0.20;;;;;;;;;;4918876;29;20469;-72
2022/11/01 06:01:46;;;;;;;0.60;0.30;;;;;;;;;;4918510;29;20944;-73
2022/11/01 06:04:14;;;;;;;0.70;0.53;;;;;;;;;;4918155;29;20996;-73
2022/11/01 06:06:44;;;;;;;1.13;0.40;;;;;;;;;;4918700;29;20594;-72
2022/11/01 06:09:12;;;;;;;2.00;1.50;;;;;;;;;;4918685;29;20590;-73
2022/11/01 06:11:40;;;;;;;0.60;0.10;;;;;;;;;;4918660;29;20504;-73
2022/11/01 06:14:11;;;;;;;0.60;0.10;;;15.00;99.90;;;;;;4918324;29;20552;-72
2022/11/01 06:16:40;;;;;;;0.60;0.30;;;15.10;99.90;;;;;;4918620;29;20484;-73
2022/11/01 06:19:09;;;;;;;0.70;0.60;;;15.10;99.90;;;;;;4959780;23;20494;-72
2022/11/01 06:21:36;;;;;;;0.57;0.10;;;15.10;99.90;;;;;;4977869;28;20457;-72
2022/11/01 06:24:06;;;;;;;0.50;0.10;;;15.20;99.90;;;;;;4977877;28;20446;-74
2022/11/01 06:26:34;;;;;;;0.70;0.70;;;15.20;99.90;;;;;;4977161;28;20442;-73
2022/11/01 06:29:03;;;;;;;0.77;0.73;;;15.20;99.90;;;;;;4965989;28;20559;-73
2022/11/01 06:31:31;;;;;;;5.73;1.67;;;15.20;99.90;;;;;;4938388;29;20480;-75
2022/11/01 06:33:59;;;;;;;0.60;0.23;;;15.20;99.90;;;;;;4937548;29;20548;-74
2022/11/01 06:36:27;;;;;;;0.70;0.43;;;15.20;99.90;;;;;;4937162;29;20502;-74
2022/11/01 06:38:55;;;;;;;0.60;0.10;;;15.20;99.90;;;;;;4938192;29;20535;-73
2022/11/01 06:41:24;;;;;;;2.60;1.13;;;15.20;99.90;;;;;;4938041;29;20463;-73
2022/11/01 06:43:52;;;;;;;0.60;0.20;;;15.20;99.90;;;;;;4937503;29;20473;-73
2022/11/01 06:46:20;;;;;;;1.10;1.07;;;15.20;99.90;;;;;;4937412;29;20456;-73
2022/11/01 06:48:48;;;;;;;2.53;2.33;;;15.20;99.90;;;;;;4940235;29;20886;-74
2022/11/01 06:51:16;;;;;;;8.43;1.20;;;15.20;99.90;;;;;;4956454;29;20950;-75
2022/11/01 06:53:44;;;;;;;0.60;0.10;;;15.20;99.90;;;;;;4956067;29;20597;-74
2022/11/01 06:56:12;;;;;;;0.70;0.30;;;15.20;99.90;;;;;;4956571;29;20481;-72
2022/11/01 06:58:41;;;;;;;2.00;1.57;;;15.20;99.90;;;;;;4955531;29;20498;-72
2022/11/01 07:01:09;;;;;;;0.97;0.77;;;15.20;99.90;;;;;;4937715;29;20448;-74
2022/11/01 07:03:37;;;;;;;1.70;1.60;;;15.20;99.90;;;;;;4936392;29;20551;-75
2022/11/01 07:06:05;;;;;;;8.57;6.07;;;15.20;99.90;;;;;;4936794;29;20447;-73
2022/11/01 07:08:32;;;;;;;1.20;0.57;;;15.10;99.90;;;;;;4937331;29;20472;-74
2022/11/01 07:11:00;;;;;;;2.63;1.23;;;15.20;99.90;;;;;;4947913;29;20452;-74
2022/11/01 07:13:32;;;;;;;0.60;0.40;;;15.10;99.90;;;;;;4936263;29;20459;-73
2022/11/01 07:16:03;;;;;;;0.60;0.20;;;15.10;99.90;;;;;;4936289;29;20452;-73
2022/11/01 07:18:31;;;;;;;1.03;0.93;;;15.20;99.90;;;;;;4936250;29;20502;-75
2022/11/01 07:21:01;;;;;;;1.57;1.23;;;15.20;99.90;;;;;;4937216;29;20491;-74
2022/11/01 07:23:29;;;;;;;0.60;0.10;;;15.20;99.90;;;;;;4947070;29;20454;-73
2022/11/01 07:25:57;;;;;;;0.60;0.10;;;15.10;99.90;;;;;;4954701;29;20791;-74
2022/11/01 07:28:25;;;;;;;6.43;4.03;;;15.20;99.90;;;;;;4955548;29;20462;-76
2022/11/01 07:30:54;;;;;;;3.27;0.40;;;15.20;99.90;;;;;;4955849;29;20450;-73
2022/11/01 07:33:23;;;;;;;1.23;1.13;;;15.30;99.90;;;;;;4945960;29;20507;-75
2022/11/01 07:35:51;;;;;;;0.70;0.47;;;15.80;99.90;;;;;;4937863;29;20511;-73
2022/11/01 07:38:19;;;;;;;0.60;0.20;;;15.30;99.90;;;;;;4937112;29;20559;-73
2022/11/01 07:40:48;;;;;;;0.70;0.53;;;15.30;99.90;;;;;;4936790;29;21015;-75
2022/11/01 07:43:17;;;;;;;1.03;1.03;;;15.40;99.90;;;;;;4945147;29;20447;-74
2022/11/01 07:45:45;;;;;;;0.60;0.20;;;15.40;99.90;;;;;;4954634;29;20447;-72
2022/11/01 07:48:14;;;;;;;0.60;0.40;;;15.50;99.90;;;;;;4955274;29;20885;-73
2022/11/01 07:50:44;;;;;;;0.70;0.40;;;15.50;99.90;;;;;;4953444;29;20443;-75
2022/11/01 07:53:14;;;;;;;0.60;0.10;;;15.50;99.90;;;;;;4935968;29;20452;-74
2022/11/01 07:55:43;;;;;;;0.87;0.60;;;15.50;99.90;;;;;;4952424;29;20452;-73
2022/11/01 07:58:12;;;;;;;1.10;1.00;;;15.50;99.90;;;;;;4935292;29;20543;-73
2022/11/01 08:00:41;;;;;;;0.60;0.10;;;15.50;99.90;;;;;;4936663;29;20475;-74
2022/11/01 08:03:11;;;;;;;2.67;1.33;;;15.50;99.90;;;;;;4935955;29;20955;-73
2022/11/01 08:05:39;;;;;;;0.60;0.20;;;15.50;99.90;;;;;;4953191;29;20961;-74
2022/11/01 08:08:08;;;;;;;1.07;0.30;;;15.50;99.90;;;;;;4957530;29;20474;-74
2022/11/01 08:10:37;;;;;;;0.60;0.10;;;15.50;99.90;;;;;;4953395;29;20870;-75
2022/11/01 08:13:07;;;;;;;0.60;0.10;;;15.60;99.90;;;;;;4939017;29;20483;-74
2022/11/01 08:15:35;;;;;;;0.60;0.10;;;15.60;99.90;;;;;;4936865;29;20456;-74
2022/11/01 08:18:03;;;;;;;2.20;2.00;;;15.70;99.90;;;;;;4935988;29;20542;-73
2022/11/01 08:20:32;;;;;;;0.60;0.30;;;;;;;;;;4936334;29;20966;-72
2022/11/01 08:23:00;;;;;;;1.43;0.97;;;15.70;99.90;;;;;;4935321;29;20875;-74
2022/11/01 08:25:30;;;;;;;0.60;0.10;;;15.80;99.90;;;;;;4936051;29;21155;-73
2022/11/01 08:28:02;;;;;;;0.60;0.10;;;15.80;99.90;;;;;;4935467;29;20519;-73
2022/11/01 08:30:30;;;;;;;0.60;0.10;;;15.80;99.90;;;;;;4935840;29;20443;-72
2022/11/01 08:32:59;;;;;;;2.20;1.60;;;15.80;99.90;;;;;;4935384;29;20471;-74
2022/11/01 08:35:28;;;;;;;0.70;0.63;;;15.80;99.90;;;;;;4948832;29;20538;-73
2022/11/01 08:37:57;;;;;;;0.60;0.20;;;15.90;99.90;;;;;;4954603;29;20479;-72
2022/11/01 08:40:27;;;;;;;0.70;0.40;;;15.90;99.90;;;;;;4954732;29;20454;-75
2022/11/01 08:42:57;;;;;;;0.60;0.10;;;15.90;99.90;;;;;;4954796;29;20461;-75
2022/11/01 08:45:25;;;;;;;0.60;0.30;;;16.00;99.90;;;;;;4939577;29;20453;-72
2022/11/01 08:47:58;;;;;;;0.70;0.50;;;16.00;99.90;;;;;;4943636;29;20467;-74
2022/11/01 08:50:26;;;;;;;0.60;0.27;;;16.00;99.90;;;;;;4946533;29;20443;-73
2022/11/01 08:52:53;;;;;;;0.97;0.73;;;16.10;99.90;;;;;;4954956;29;20504;-75
2022/11/01 08:55:21;;;;;;;0.60;0.40;;;16.10;99.90;;;;;;4953466;29;20482;-73
2022/11/01 08:57:50;;;;;;;1.40;1.00;;;16.10;99.90;;;;;;4954540;29;20518;-75
2022/11/01 09:00:20;;;;;;;0.70;0.33;;;16.00;99.90;;;;;;4954709;29;20482;-74
2022/11/01 09:02:48;;;;;;;2.70;1.97;;;16.00;99.90;;;;;;4954053;29;20458;-75
2022/11/01 09:05:15;;;;;;;0.67;0.30;;;16.10;99.90;;;;;;4938721;29;20452;-74
2022/11/01 09:07:43;;;;;;;0.60;0.30;;;16.10;99.90;;;;;;4935607;29;20456;-74
2022/11/01 09:10:12;;;;;;;2.13;1.53;;;16.10;99.90;;;;;;4937939;29;20471;-71
2022/11/01 09:12:40;;;;;;;2.20;2.07;;;16.10;99.90;;;;;;4953122;29;20450;-75
2022/11/01 09:15:13;;;;;;;0.70;0.23;;;;;;;;;;4964507;28;20864;-75
2022/11/01 09:17:42;;;;;;;0.90;0.67;;;16.20;99.90;;;;;;4975295;28;20446;-75
2022/11/01 09:20:10;;;;;;;1.67;1.00;;;16.20;99.90;;;;;;4951275;28;21006;-74
2022/11/01 09:22:38;;;;;;;2.10;0.50;;;16.20;99.90;;;;;;4941308;29;20518;-72
2022/11/01 09:25:07;;;;;;;1.70;1.60;;;16.20;96.90;;;;;;4951756;29;20469;-73
2022/11/01 09:27:35;;;;;;;0.60;0.20;;;16.30;99.40;;;;;;4943106;29;20462;-73
2022/11/01 09:30:03;;;;;;;0.60;0.10;;;16.30;97.00;;;;;;4954546;29;20544;-74
2022/11/01 09:32:31;;;;;;;1.27;0.40;;;16.30;99.30;;;;;;4961997;29;20518;-73
2022/11/01 09:35:00;;;;;;;1.20;1.00;;;16.30;99.10;;;;;;4951678;29;20470;-74
2022/11/01 09:37:28;;;;;;;0.60;0.20;;;16.20;96.90;;;;;;4945514;29;20455;-74
2022/11/01 09:39:56;;;;;;;0.70;0.50;;;16.40;97.00;;;;;;4940967;29;20487;-75
2022/11/01 09:42:31;;;;;;;0.60;0.13;;;16.40;97.00;;;;;;4955942;29;20996;-73
2022/11/01 09:45:03;;;;;;;0.70;0.40;;;16.40;96.90;;;;;;4950397;29;20446;-74
2022/11/01 09:47:32;;;;;;;0.80;0.30;;;16.40;65.00;;;;;;4949726;29;20451;-73
2022/11/01 09:50:09;;;;;;;0.60;0.10;;;16.50;55.00;;;;;;4949422;29;20456;-73
2022/11/01 09:52:37;;;;;;;1.17;1.03;;;16.50;49.50;;;;;;4957872;29;20455;-74
2022/11/01 09:55:13;;;;;;;2.30;0.97;;;16.50;32.80;;;;;;4961381;29;21098;-72
2022/11/01 09:57:45;;;;;;;0.67;0.40;;;16.60;22.30;;;;;;4960539;29;20946;-74
2022/11/01 10:00:16;;;;;;;0.60;0.20;;;16.50;1.00;;;;;;4951106;29;20533;-74
2022/11/01 10:03:20;;;;;;;0.60;0.10;;;16.60;1.00;;;;;;4960327;29;20447;-74
2022/11/01 10:05:59;;;;;;;1.63;0.93;;;16.60;1.00;;;;;;4943020;29;20475;-73
2022/11/01 10:08:37;;;;;;;2.90;0.60;;;16.60;1.00;;;;;;4952093;29;20519;-72
2022/11/01 10:11:28;;;;;;;1.53;0.57;;;16.50;1.00;;;;;;4949714;29;20502;-72
2022/11/01 10:14:03;;;;;;;1.60;1.03;;;16.60;1.00;;;;;;4954888;29;20447;-74
2022/11/01 10:16:36;;;;;;;0.60;0.10;;;16.60;1.00;;;;;;4947145;29;20448;-73
2022/11/01 10:19:06;;;;;;;0.60;0.10;;;16.70;1.00;;;;;;4940902;29;20543;-72
2022/11/01 10:21:41;;;;;;;0.60;0.20;;;16.70;1.00;;;;;;4939733;29;20448;-74
2022/11/01 10:24:20;;;;;;;0.60;0.20;;;16.70;1.00;;;;;;4940820;29;20459;-75
2022/11/01 10:26:50;;;;;;;0.77;0.40;;;16.80;1.00;;;;;;4939855;29;20452;-74
2022/11/01 10:29:28;;;;;;;0.70;0.40;;;16.80;1.00;;;;;;4958815;29;20470;-76
2022/11/01 10:31:57;;;;;;;0.70;0.60;;;16.80;1.00;;;;;;4958318;29;20763;-75
2022/11/01 10:34:28;;;;;;;0.63;0.30;;;16.90;1.00;;;;;;4956761;29;20455;-75
2022/11/01 10:37:15;;;;;;;1.77;0.43;;;16.90;1.00;;;;;;4938187;29;20455;-74
2022/11/01 10:39:49;;;;;;;0.70;0.40;;;16.90;1.00;;;;;;4945070;28;20498;-73
2022/11/01 10:42:27;;;;;;;0.70;0.50;;;17.00;1.00;;;;;;4963578;28;20563;-76
2022/11/01 10:44:58;;;;;;;1.03;0.80;;;17.20;1.00;;;;;;4973553;28;20458;-73
2022/11/01 10:47:27;;;;;;;0.70;0.30;;;17.10;1.00;;;;;;4976427;28;21028;-75
2022/11/01 10:49:59;;;;;;;0.60;0.10;;;17.10;1.00;;;;;;4977564;28;20462;-74
2022/11/01 10:52:44;;;;;;;0.90;0.33;;;17.10;1.00;;;;;;4956299;28;20478;-75
2022/11/01 10:55:17;;;;;;;1.33;1.23;;;17.20;1.00;;;;;;4957626;28;20969;-75
2022/11/01 10:57:48;;;;;;;0.70;0.30;;;17.40;1.00;;;;;;4968168;28;20447;-75
2022/11/01 11:00:19;;;;;;;0.90;0.40;;;17.40;1.00;;;;;;4975881;28;20482;-76
2022/11/01 11:02:50;;;;;;;0.60;0.10;;;17.40;1.00;;;;;;4979844;28;20464;-76
2022/11/01 11:05:21;;;;;;;0.60;0.10;;;17.50;1.00;;;;;;4948271;28;20547;-74
2022/11/01 11:07:51;;;;;;;0.60;0.10;;;;;;;;;;4940759;29;20432;-75
2022/11/01 11:10:22;;;;;;;0.60;0.10;;;17.60;1.00;;;;;;4942692;29;20451;-74
2022/11/01 11:12:56;;;;;;;0.60;0.10;;;17.60;1.00;;;;;;4941165;29;20440;-74
2022/11/01 11:15:35;;;;;;;0.60;0.20;;;17.60;1.00;;;;;;4938606;29;20452;-74
2022/11/01 11:18:07;;;;;;;0.60;0.30;;;17.70;1.00;;;;;;4939175;29;20963;-74
2022/11/01 11:20:36;;;;;;;0.60;0.10;;;17.80;1.00;;;;;;4950072;29;20489;-74
2022/11/01 11:23:11;;;;;;;0.60;0.20;;;17.80;1.00;;;;;;4953684;29;20453;-74
2022/11/01 11:25:41;;;;;;;0.60;0.20;;;17.80;1.00;;;;;;4943743;29;20456;-75
2022/11/01 11:28:22;;;;;;;0.60;0.10;;;17.80;1.00;;;;;;4940717;29;20507;-73
2022/11/01 11:30:50;;;;;;;0.60;0.10;;;17.90;1.00;;;;;;4938590;29;20860;-74
2022/11/01 11:33:18;;;;;;;0.60;0.20;;;17.90;1.00;;;;;;4951086;29;20780;-75
2022/11/01 11:35:58;;;;;;;0.60;0.20;;;18.00;1.00;;;;;;4948312;29;20518;-73
2022/11/01 11:38:51;;;;;;;0.60;0.20;;;18.00;1.00;;;;;;4941528;29;20487;-73
2022/11/01 11:41:30;;;;;;;1.17;0.40;;;18.00;1.00;;;;;;4944527;29;20463;-75
2022/11/01 11:43:59;;;;;;;0.60;0.20;;;17.90;1.00;;;;;;4954945;29;20451;-74
2022/11/01 11:46:27;;;;;;;0.60;0.10;;;18.00;1.00;;;;;;4950479;29;20981;-74
2022/11/01 11:48:58;;;;;;;0.60;0.20;;;17.90;1.00;;;;;;4958166;28;20631;-75
2022/11/01 11:51:28;;;;;;;0.90;0.40;;;18.00;1.00;;;;;;4969512;28;20451;-75
2022/11/01 11:54:18;;;;;;;0.60;0.20;;;18.00;1.00;;;;;;4975775;28;20458;-75
2022/11/01 11:56:47;;;;;;;0.60;0.20;;;18.00;1.00;;;;;;4975825;28;20462;-73
2022/11/01 11:59:24;;;;;;;0.70;0.20;;;18.00;1.00;;;;;;4984016;28;20537;-74
2022/11/01 12:01:58;;;;;;;1.80;0.40;;;17.80;1.00;;;;;;4960283;28;20465;-74
2022/11/01 12:04:31;;;;;;;0.90;0.30;;;17.80;1.00;;;;;;4952673;28;20477;-80
2022/11/01 12:06:59;;;;;;;0.60;0.20;;;17.70;1.00;;;;;;4960580;29;20751;-80
2022/11/01 12:09:42;;;;;;;0.60;0.10;;;17.80;1.00;;;;;;4963805;29;21012;-80
2022/11/01 12:12:17;;;;;;;0.60;0.10;;;17.80;1.00;;;;;;4948452;29;20432;-79
2022/11/01 12:14:46;;;;;;;0.70;0.47;;;17.90;1.00;;;;;;4961279;28;20459;-78
2022/11/01 12:17:33;;;;;;;0.60;0.20;;;17.90;1.00;;;;;;4966868;29;20511;-79
2022/11/01 12:20:14;;;;;;;0.70;0.50;;;17.90;1.00;;;;;;4962519;29;20494;-78
2022/11/01 12:22:47;;;;;;;1.13;0.30;;;18.00;1.00;;;;;;4946007;29;20812;-77
2022/11/01 12:25:21;;;;;;;1.33;0.30;;;18.00;1.00;;;;;;4954743;28;20446;-76
2022/11/01 12:27:54;;;;;;;1.33;1.00;;;17.80;1.00;;;;;;4971126;28;20463;-73
2022/11/01 12:30:24;;;;;;;0.60;0.10;;;17.70;1.00;;;;;;4970328;28;20459;-74
2022/11/01 12:32:54;;;;;;;0.60;0.10;;;17.80;1.00;;;;;;4951303;28;20997;-74
2022/11/01 12:35:27;;;;;;;0.60;0.10;;;17.90;1.00;;;;;;4960526;29;20454;-74
2022/11/01 12:38:23;;;;;;;0.60;0.10;;;18.10;1.00;;;;;;4981584;28;20557;-74
2022/11/01 12:40:54;;;;;;;3.77;0.30;;;18.10;1.00;;;;;;4962348;28;20488;-77
2022/11/01 12:43:30;;;;;;;0.60;0.10;;;18.10;1.00;;;;;;4940488;29;20451;-76
2022/11/01 12:46:03;;;;;;;2.40;0.60;;;18.10;1.00;;;;;;4941400;29;20451;-76
2022/11/01 12:48:35;;;;;;;0.87;0.43;;;18.20;1.00;;;;;;4939455;29;20531;-76
2022/11/01 12:51:09;;;;;;;2.00;0.63;;;18.20;1.00;;;;;;4937251;29;20459;-74
2022/11/01 12:53:44;;;;;;;0.60;0.30;;;18.20;1.00;;;;;;4945303;29;20490;-76
2022/11/01 12:56:13;;;;;;;1.40;1.13;;;18.10;1.00;;;;;;4960473;29;20938;-76
2022/11/01 12:58:41;;;;;;;0.80;0.30;;;18.10;1.00;;;;;;4958668;29;20475;-77
2022/11/01 13:01:26;;;;;;;4.57;0.40;;;18.10;1.00;;;;;;4956349;28;20479;-77
2022/11/01 13:04:07;;;;;;;0.60;0.20;;;18.10;1.00;;;;;;4963305;28;20473;-76
2022/11/01 13:06:58;;;;;;;1.03;0.67;;;18.10;1.00;;;;;;4963998;28;21039;-74
2022/11/01 13:09:39;;;;;;;1.37;0.50;;;18.20;1.00;;;;;;4980134;28;20541;-76
2022/11/01 13:12:14;;;;;;;0.60;0.10;;;18.20;1.00;;;;;;4961215;29;20444;-73
2022/11/01 13:14:52;;;;;;;0.90;0.67;;;18.20;1.00;;;;;;4957298;29;20467;-75
2022/11/01 13:17:26;;;;;;;0.60;0.10;;;18.20;1.00;;;;;;4967342;28;20450;-77
2022/11/01 13:20:04;;;;;;;0.60;0.10;;;18.20;1.00;;;;;;4977374;28;20494;-76
2022/11/01 13:22:39;;;;;;;0.73;0.30;;;18.20;1.00;;;;;;4978412;28;20446;-75
2022/11/01 13:25:17;;;;;;;0.60;0.10;;;18.20;1.00;;;;;;4989721;28;20437;-73
2022/11/01 13:27:52;;;;;;;0.60;0.10;;;18.10;1.00;;;;;;4962442;28;20443;-74
2022/11/01 13:30:20;;;;;;;0.60;0.20;;;18.10;1.00;;;;;;4960865;29;20449;-74
2022/11/01 13:32:57;;;;;;;1.37;0.50;;;18.00;1.00;;;;;;4959729;29;20498;-75
2022/11/01 13:35:44;;;;;;;10.60;0.40;;;18.00;1.00;;;;;;4956652;29;20486;-74
2022/11/01 13:38:22;;;;;;;0.60;0.10;;;17.90;1.00;;;;;;4958968;29;20549;-75
2022/11/01 13:40:58;;;;;;;0.70;0.20;;;17.90;1.00;;;;;;4963663;29;20924;-73
2022/11/01 13:43:34;;;;;;;0.60;0.20;;;18.00;1.00;;;;;;4954262;28;20513;-75
2022/11/01 13:46:31;;;;;;;1.00;0.30;;;18.00;1.00;;;;;;4955162;28;20453;-75
2022/11/01 13:49:30;;;;;;;0.60;0.20;;;17.90;1.00;;;;;;4938997;28;20492;-76
2022/11/01 13:52:05;;;;;;;0.70;0.33;;;18.00;1.00;;;;;;4958751;28;20956;-78
2022/11/01 13:54:39;;;;;;;0.60;0.10;;;18.00;1.00;;;;;;4945551;29;20484;-74
2022/11/01 13:57:13;;;;;;;0.80;0.40;;;18.00;1.00;;;;;;4938695;29;20444;-74